sensor_id;sensor_type;location;lat;lon;timestamp;P1;P2;P0
65556;PMS3003;52200;53.490;14.376;2024-01-30T00:02:21;30.50;23.00;13.00
65556;PMS3003;52200;53.490;14.376;2024-01-30T00:04:47;41.00;23.25;13.25
65556;PMS3003;52200;53.490;14.376;2024-01-30T00:07:12;38.75;23.75;14.00
65556;PMS3003;52200;53.490;14.376;2024-01-30T00:09:38;36.50;22.25;10.50
65556;PMS3003;52200;53.490;14.376;2024-01-30T00:12:04;36.00;20.40;12.00
65556;PMS3003;52200;53.490;14.376;2024-01-30T00:14:31;37.00;23.80;13.00
65556;PMS3003;52200;53.490;14.376;2024-01-30T00:16:56;43.25;28.00;16.50
65556;PMS3003;52200;53.490;14.376;2024-01-30T00:19:22;38.25;23.50;15.75
65556;PMS3003;52200;53.490;14.376;2024-01-30T00:21:47;34.25;22.25;13.00
65556;PMS3003;52200;53.490;14.376;2024-01-30T00:24:13;34.75;23.25;14.00
65556;PMS3003;52200;53.490;14.376;2024-01-30T00:26:38;36.25;26.00;11.00
65556;PMS3003;52200;53.490;14.376;2024-01-30T00:29:04;34.25;23.50;13.00
65556;PMS3003;52200;53.490;14.376;2024-01-30T00:31:29;32.00;19.75;11.00
65556;PMS3003;52200;53.490;14.376;2024-01-30T00:33:55;28.75;20.00;13.00
65556;PMS3003;52200;53.490;14.376;2024-01-30T00:36:20;38.50;22.50;13.50
65556;PMS3003;52200;53.490;14.376;2024-01-30T00:38:46;38.50;24.25;13.50
65556;PMS3003;52200;53.490;14.376;2024-01-30T00:41:11;36.75;25.25;13.75
65556;PMS3003;52200;53.490;14.376;2024-01-30T00:43:36;42.25;24.25;14.25
65556;PMS3003;52200;53.490;14.376;2024-01-30T00:46:02;34.25;24.00;14.00
65556;PMS3003;52200;53.490;14.376;2024-01-30T00:48:28;33.00;21.60;13.00
65556;PMS3003;52200;53.490;14.376;2024-01-30T00:50:53;31.25;20.75;12.75
65556;PMS3003;52200;53.490;14.376;2024-01-30T00:53:19;35.75;21.00;13.00
65556;PMS3003;52200;53.490;14.376;2024-01-30T00:55:45;34.25;20.50;10.25
65556;PMS3003;52200;53.490;14.376;2024-01-30T00:58:10;31.50;22.00;11.25
65556;PMS3003;52200;53.490;14.376;2024-01-30T01:00:35;35.25;20.50;11.50
65556;PMS3003;52200;53.490;14.376;2024-01-30T01:03:02;29.00;17.00;10.20
65556;PMS3003;52200;53.490;14.376;2024-01-30T01:05:28;37.60;23.80;13.00
65556;PMS3003;52200;53.490;14.376;2024-01-30T01:07:53;39.00;19.25;11.00
65556;PMS3003;52200;53.490;14.376;2024-01-30T01:10:19;31.25;17.25;8.00
65556;PMS3003;52200;53.490;14.376;2024-01-30T01:12:45;40.75;23.00;10.25
65556;PMS3003;52200;53.490;14.376;2024-01-30T01:15:11;32.60;19.00;10.60
65556;PMS3003;52200;53.490;14.376;2024-01-30T01:17:37;33.00;21.00;12.00
65556;PMS3003;52200;53.490;14.376;2024-01-30T01:20:03;28.40;20.20;11.00
65556;PMS3003;52200;53.490;14.376;2024-01-30T01:22:30;31.20;22.40;12.80
65556;PMS3003;52200;53.490;14.376;2024-01-30T01:24:56;36.00;18.50;9.50
65556;PMS3003;52200;53.490;14.376;2024-01-30T01:27:21;34.75;16.75;10.25
65556;PMS3003;52200;53.490;14.376;2024-01-30T01:29:46;28.00;17.50;9.50
65556;PMS3003;52200;53.490;14.376;2024-01-30T01:32:12;28.75;15.25;9.00
65556;PMS3003;52200;53.490;14.376;2024-01-30T01:34:37;29.75;18.00;9.00
65556;PMS3003;52200;53.490;14.376;2024-01-30T01:37:03;31.80;16.00;10.00
65556;PMS3003;52200;53.490;14.376;2024-01-30T01:39:29;25.00;16.00;9.25
65556;PMS3003;52200;53.490;14.376;2024-01-30T01:41:54;34.75;18.00;9.25
65556;PMS3003;52200;53.490;14.376;2024-01-30T01:44:19;33.50;16.00;9.25
65556;PMS3003;52200;53.490;14.376;2024-01-30T01:46:45;27.00;16.25;9.25
65556;PMS3003;52200;53.490;14.376;2024-01-30T01:49:11;30.60;16.60;8.80
65556;PMS3003;52200;53.490;14.376;2024-01-30T01:51:36;24.25;12.25;7.00
65556;PMS3003;52200;53.490;14.376;2024-01-30T01:54:06;23.00;14.00;6.60
65556;PMS3003;52200;53.490;14.376;2024-01-30T01:56:32;32.00;15.00;7.00
65556;PMS3003;52200;53.490;14.376;2024-01-30T01:59:08;29.00;15.60;7.40
65556;PMS3003;52200;53.490;14.376;2024-01-30T02:01:34;35.40;16.40;7.60
65556;PMS3003;52200;53.490;14.376;2024-01-30T02:04:02;26.20;14.00;6.60
65556;PMS3003;52200;53.490;14.376;2024-01-30T02:06:27;27.00;16.25;7.75
65556;PMS3003;52200;53.490;14.376;2024-01-30T02:08:53;27.00;12.80;7.80
65556;PMS3003;52200;53.490;14.376;2024-01-30T02:11:19;26.40;15.80;7.80
65556;PMS3003;52200;53.490;14.376;2024-01-30T02:13:45;27.20;17.20;7.80
65556;PMS3003;52200;53.490;14.376;2024-01-30T02:16:11;25.00;15.25;7.75
65556;PMS3003;52200;53.490;14.376;2024-01-30T02:18:36;30.00;16.50;7.00
65556;PMS3003;52200;53.490;14.376;2024-01-30T02:21:07;27.60;12.60;7.00
65556;PMS3003;52200;53.490;14.376;2024-01-30T02:23:32;23.20;12.80;8.20
65556;PMS3003;52200;53.490;14.376;2024-01-30T02:25:59;21.60;12.40;7.40
65556;PMS3003;52200;53.490;14.376;2024-01-30T02:28:25;25.60;13.40;7.00
65556;PMS3003;52200;53.490;14.376;2024-01-30T02:30:51;29.80;17.00;7.20
65556;PMS3003;52200;53.490;14.376;2024-01-30T02:33:16;31.50;13.75;8.00
65556;PMS3003;52200;53.490;14.376;2024-01-30T02:35:42;25.00;10.25;4.75
65556;PMS3003;52200;53.490;14.376;2024-01-30T02:38:07;29.25;13.75;9.00
65556;PMS3003;52200;53.490;14.376;2024-01-30T02:40:33;23.75;15.25;7.50
65556;PMS3003;52200;53.490;14.376;2024-01-30T02:42:59;25.50;16.00;7.50
65556;PMS3003;52200;53.490;14.376;2024-01-30T02:45:25;26.20;16.80;7.00
65556;PMS3003;52200;53.490;14.376;2024-01-30T02:47:50;24.25;13.25;6.50
65556;PMS3003;52200;53.490;14.376;2024-01-30T02:50:16;23.00;15.25;7.50
65556;PMS3003;52200;53.490;14.376;2024-01-30T02:52:41;28.75;16.00;7.00
65556;PMS3003;52200;53.490;14.376;2024-01-30T02:55:10;29.60;15.80;8.80
65556;PMS3003;52200;53.490;14.376;2024-01-30T02:57:35;30.75;20.00;9.75
65556;PMS3003;52200;53.490;14.376;2024-01-30T03:00:01;22.75;14.75;8.00
65556;PMS3003;52200;53.490;14.376;2024-01-30T03:02:29;28.40;13.20;7.00
65556;PMS3003;52200;53.490;14.376;2024-01-30T03:04:54;30.00;15.25;8.00
65556;PMS3003;52200;53.490;14.376;2024-01-30T03:07:20;24.00;14.50;9.00
65556;PMS3003;52200;53.490;14.376;2024-01-30T03:09:45;29.50;16.00;8.75
65556;PMS3003;52200;53.490;14.376;2024-01-30T03:12:10;30.00;15.50;9.00
65556;PMS3003;52200;53.490;14.376;2024-01-30T03:14:36;24.75;15.00;9.75
65556;PMS3003;52200;53.490;14.376;2024-01-30T03:17:04;28.00;13.50;9.00
65556;PMS3003;52200;53.490;14.376;2024-01-30T03:19:30;28.00;12.60;7.40
65556;PMS3003;52200;53.490;14.376;2024-01-30T03:21:55;27.75;15.00;9.00
65556;PMS3003;52200;53.490;14.376;2024-01-30T03:24:20;31.75;19.00;10.00
65556;PMS3003;52200;53.490;14.376;2024-01-30T03:26:46;25.50;17.50;9.00
65556;PMS3003;52200;53.490;14.376;2024-01-30T03:29:11;37.75;18.00;9.50
65556;PMS3003;52200;53.490;14.376;2024-01-30T03:31:37;26.75;15.75;9.00
65556;PMS3003;52200;53.490;14.376;2024-01-30T03:34:03;34.20;18.60;10.00
65556;PMS3003;52200;53.490;14.376;2024-01-30T03:36:29;25.50;15.25;8.75
65556;PMS3003;52200;53.490;14.376;2024-01-30T03:38:57;33.80;15.80;9.00
65556;PMS3003;52200;53.490;14.376;2024-01-30T03:41:23;25.50;14.00;8.25
65556;PMS3003;52200;53.490;14.376;2024-01-30T03:43:48;29.50;15.75;9.00
65556;PMS3003;52200;53.490;14.376;2024-01-30T03:46:14;32.00;20.50;10.00
65556;PMS3003;52200;53.490;14.376;2024-01-30T03:48:39;28.50;15.50;8.25
65556;PMS3003;52200;53.490;14.376;2024-01-30T03:51:05;25.50;15.00;9.25
65556;PMS3003;52200;53.490;14.376;2024-01-30T03:53:30;25.75;17.50;9.25
65556;PMS3003;52200;53.490;14.376;2024-01-30T03:55:56;29.25;15.00;7.50
65556;PMS3003;52200;53.490;14.376;2024-01-30T03:58:21;26.00;15.00;7.00
65556;PMS3003;52200;53.490;14.376;2024-01-30T04:00:47;29.75;20.25;9.00
65556;PMS3003;52200;53.490;14.376;2024-01-30T04:03:12;37.50;19.75;9.00
65556;PMS3003;52200;53.490;14.376;2024-01-30T04:05:39;23.20;14.00;7.60
65556;PMS3003;52200;53.490;14.376;2024-01-30T04:08:05;31.50;19.50;9.50
65556;PMS3003;52200;53.490;14.376;2024-01-30T04:10:31;29.20;15.00;6.80
65556;PMS3003;52200;53.490;14.376;2024-01-30T04:12:56;30.75;18.00;9.00
65556;PMS3003;52200;53.490;14.376;2024-01-30T04:15:21;27.50;14.75;9.00
65556;PMS3003;52200;53.490;14.376;2024-01-30T04:17:47;23.75;15.00;9.00
65556;PMS3003;52200;53.490;14.376;2024-01-30T04:20:15;25.75;13.25;7.00
65556;PMS3003;52200;53.490;14.376;2024-01-30T04:22:42;27.40;17.80;10.00
65556;PMS3003;52200;53.490;14.376;2024-01-30T04:25:11;25.00;13.20;8.60
65556;PMS3003;52200;53.490;14.376;2024-01-30T04:27:38;27.00;17.20;9.20
65556;PMS3003;52200;53.490;14.376;2024-01-30T04:30:03;32.00;20.50;11.00
65556;PMS3003;52200;53.490;14.376;2024-01-30T04:32:29;32.40;14.60;9.00
65556;PMS3003;52200;53.490;14.376;2024-01-30T04:34:55;24.50;13.75;8.50
65556;PMS3003;52200;53.490;14.376;2024-01-30T04:37:21;29.20;19.80;9.20
65556;PMS3003;52200;53.490;14.376;2024-01-30T04:39:47;27.00;18.00;9.00
65556;PMS3003;52200;53.490;14.376;2024-01-30T04:42:12;30.75;20.50;10.00
65556;PMS3003;52200;53.490;14.376;2024-01-30T04:44:38;33.50;19.75;9.75
65556;PMS3003;52200;53.490;14.376;2024-01-30T04:47:03;35.00;17.25;9.50
65556;PMS3003;52200;53.490;14.376;2024-01-30T04:49:31;33.60;15.60;8.80
65556;PMS3003;52200;53.490;14.376;2024-01-30T04:51:56;34.00;21.25;11.25
65556;PMS3003;52200;53.490;14.376;2024-01-30T04:54:22;34.00;17.80;9.40
65556;PMS3003;52200;53.490;14.376;2024-01-30T04:56:48;32.75;14.75;9.25
65556;PMS3003;52200;53.490;14.376;2024-01-30T04:59:13;39.00;19.25;9.50
65556;PMS3003;52200;53.490;14.376;2024-01-30T05:01:39;32.75;19.50;9.25
65556;PMS3003;52200;53.490;14.376;2024-01-30T05:04:07;31.50;16.75;8.00
65556;PMS3003;52200;53.490;14.376;2024-01-30T05:06:33;32.80;15.80;9.40
65556;PMS3003;52200;53.490;14.376;2024-01-30T05:08:58;30.75;16.25;9.25
65556;PMS3003;52200;53.490;14.376;2024-01-30T05:11:23;28.75;17.25;9.50
65556;PMS3003;52200;53.490;14.376;2024-01-30T05:13:49;31.00;15.50;8.25
65556;PMS3003;52200;53.490;14.376;2024-01-30T05:16:14;28.00;15.75;7.00
65556;PMS3003;52200;53.490;14.376;2024-01-30T05:18:40;26.00;14.75;9.25
65556;PMS3003;52200;53.490;14.376;2024-01-30T05:21:05;35.00;19.00;9.25
65556;PMS3003;52200;53.490;14.376;2024-01-30T05:23:31;31.00;15.25;9.75
65556;PMS3003;52200;53.490;14.376;2024-01-30T05:25:56;25.00;15.25;8.75
65556;PMS3003;52200;53.490;14.376;2024-01-30T05:28:22;31.00;19.25;10.00
65556;PMS3003;52200;53.490;14.376;2024-01-30T05:30:47;24.50;17.00;9.50
65556;PMS3003;52200;53.490;14.376;2024-01-30T05:33:12;28.00;16.00;9.00
65556;PMS3003;52200;53.490;14.376;2024-01-30T05:35:38;31.00;18.00;9.00
65556;PMS3003;52200;53.490;14.376;2024-01-30T05:38:04;28.50;18.00;12.00
65556;PMS3003;52200;53.490;14.376;2024-01-30T05:40:29;41.25;25.75;15.75
65556;PMS3003;52200;53.490;14.376;2024-01-30T05:42:55;36.40;24.20;13.80
65556;PMS3003;52200;53.490;14.376;2024-01-30T05:45:23;37.40;22.40;13.60
65556;PMS3003;52200;53.490;14.376;2024-01-30T05:47:48;50.50;29.25;16.75
65556;PMS3003;52200;53.490;14.376;2024-01-30T05:50:14;37.75;23.00;15.00
65556;PMS3003;52200;53.490;14.376;2024-01-30T05:52:40;40.00;24.25;14.25
65556;PMS3003;52200;53.490;14.376;2024-01-30T05:55:05;37.75;25.00;13.50
65556;PMS3003;52200;53.490;14.376;2024-01-30T05:57:31;41.00;29.25;14.75
65556;PMS3003;52200;53.490;14.376;2024-01-30T05:59:56;41.75;27.00;16.25
65556;PMS3003;52200;53.490;14.376;2024-01-30T06:02:21;39.75;21.25;13.00
65556;PMS3003;52200;53.490;14.376;2024-01-30T06:04:47;38.25;24.25;17.00
65556;PMS3003;52200;53.490;14.376;2024-01-30T06:07:12;48.00;26.50;14.00
65556;PMS3003;52200;53.490;14.376;2024-01-30T06:09:38;37.75;27.00;14.00
65556;PMS3003;52200;53.490;14.376;2024-01-30T06:12:04;42.75;24.75;15.25
65556;PMS3003;52200;53.490;14.376;2024-01-30T06:14:30;36.80;24.00;12.00
65556;PMS3003;52200;53.490;14.376;2024-01-30T06:16:55;33.00;22.50;12.25
65556;PMS3003;52200;53.490;14.376;2024-01-30T06:19:21;34.50;21.50;10.00
65556;PMS3003;52200;53.490;14.376;2024-01-30T06:21:46;40.00;21.50;11.25
65556;PMS3003;52200;53.490;14.376;2024-01-30T06:24:12;35.00;18.00;11.75
65556;PMS3003;52200;53.490;14.376;2024-01-30T06:26:37;36.00;20.75;11.50
65556;PMS3003;52200;53.490;14.376;2024-01-30T06:29:03;30.50;19.25;11.75
65556;PMS3003;52200;53.490;14.376;2024-01-30T06:31:28;37.50;24.00;13.50
65556;PMS3003;52200;53.490;14.376;2024-01-30T06:33:54;41.25;25.25;12.25
65556;PMS3003;52200;53.490;14.376;2024-01-30T06:36:19;35.00;19.00;11.75
65556;PMS3003;52200;53.490;14.376;2024-01-30T06:38:45;31.25;18.25;10.25
65556;PMS3003;52200;53.490;14.376;2024-01-30T06:41:10;35.50;22.25;13.00
65556;PMS3003;52200;53.490;14.376;2024-01-30T06:43:35;37.50;23.00;13.00
65556;PMS3003;52200;53.490;14.376;2024-01-30T06:46:01;45.25;28.25;16.00
65556;PMS3003;52200;53.490;14.376;2024-01-30T06:48:26;37.00;22.75;12.75
65556;PMS3003;52200;53.490;14.376;2024-01-30T06:50:55;38.50;24.50;13.25
65556;PMS3003;52200;53.490;14.376;2024-01-30T06:53:22;43.60;28.80;15.20
65556;PMS3003;52200;53.490;14.376;2024-01-30T06:55:48;37.50;27.25;12.75
65556;PMS3003;52200;53.490;14.376;2024-01-30T06:58:13;39.00;27.00;15.75
65556;PMS3003;52200;53.490;14.376;2024-01-30T07:00:39;34.00;22.25;13.25
65556;PMS3003;52200;53.490;14.376;2024-01-30T07:03:04;35.00;22.25;13.75
65556;PMS3003;52200;53.490;14.376;2024-01-30T07:05:29;40.00;28.00;15.50
65556;PMS3003;52200;53.490;14.376;2024-01-30T07:07:55;41.75;24.00;14.75
65556;PMS3003;52200;53.490;14.376;2024-01-30T07:10:20;37.25;22.00;10.75
65556;PMS3003;52200;53.490;14.376;2024-01-30T07:12:46;36.25;23.00;12.75
65556;PMS3003;52200;53.490;14.376;2024-01-30T07:15:11;38.50;24.25;12.00
65556;PMS3003;52200;53.490;14.376;2024-01-30T07:17:39;45.20;23.00;13.00
65556;PMS3003;52200;53.490;14.376;2024-01-30T07:20:05;37.00;20.50;9.25
65556;PMS3003;52200;53.490;14.376;2024-01-30T07:22:31;37.80;22.40;11.20
65556;PMS3003;52200;53.490;14.376;2024-01-30T07:24:56;31.75;21.00;11.75
65556;PMS3003;52200;53.490;14.376;2024-01-30T07:27:22;42.00;26.00;14.50
65556;PMS3003;52200;53.490;14.376;2024-01-30T07:29:47;39.75;27.00;16.00
65556;PMS3003;52200;53.490;14.376;2024-01-30T07:32:13;32.25;22.50;13.75
65556;PMS3003;52200;53.490;14.376;2024-01-30T07:34:38;40.50;23.25;12.75
65556;PMS3003;52200;53.490;14.376;2024-01-30T07:37:04;36.00;25.50;15.50
65556;PMS3003;52200;53.490;14.376;2024-01-30T07:39:29;47.25;27.25;14.25
65556;PMS3003;52200;53.490;14.376;2024-01-30T07:41:55;32.75;21.25;12.00
65556;PMS3003;52200;53.490;14.376;2024-01-30T07:44:20;42.75;24.75;15.75
65556;PMS3003;52200;53.490;14.376;2024-01-30T07:46:46;41.75;30.00;15.50
65556;PMS3003;52200;53.490;14.376;2024-01-30T07:49:11;37.75;24.50;13.00
65556;PMS3003;52200;53.490;14.376;2024-01-30T07:51:39;33.20;23.00;13.80
65556;PMS3003;52200;53.490;14.376;2024-01-30T07:54:04;33.50;22.75;14.00
65556;PMS3003;52200;53.490;14.376;2024-01-30T07:56:30;32.25;23.00;13.00
65556;PMS3003;52200;53.490;14.376;2024-01-30T07:58:55;39.50;24.75;13.00
65556;PMS3003;52200;53.490;14.376;2024-01-30T08:01:21;34.50;22.25;13.00
65556;PMS3003;52200;53.490;14.376;2024-01-30T08:03:46;29.75;19.75;12.25
65556;PMS3003;52200;53.490;14.376;2024-01-30T08:06:12;40.50;21.75;15.00
65556;PMS3003;52200;53.490;14.376;2024-01-30T08:08:37;45.25;28.75;15.75
65556;PMS3003;52200;53.490;14.376;2024-01-30T08:11:03;40.00;24.75;13.75
65556;PMS3003;52200;53.490;14.376;2024-01-30T08:13:28;33.00;23.00;14.00
65556;PMS3003;52200;53.490;14.376;2024-01-30T08:15:54;34.50;20.50;11.00
65556;PMS3003;52200;53.490;14.376;2024-01-30T08:18:19;33.50;23.00;11.75
65556;PMS3003;52200;53.490;14.376;2024-01-30T08:20:44;38.00;23.75;13.25
65556;PMS3003;52200;53.490;14.376;2024-01-30T08:23:10;32.75;22.00;13.75
65556;PMS3003;52200;53.490;14.376;2024-01-30T08:25:35;31.75;22.25;13.50
65556;PMS3003;52200;53.490;14.376;2024-01-30T08:28:01;32.40;20.00;13.80
65556;PMS3003;52200;53.490;14.376;2024-01-30T08:30:27;38.25;23.75;14.50
65556;PMS3003;52200;53.490;14.376;2024-01-30T08:32:52;37.25;24.00;12.00
65556;PMS3003;52200;53.490;14.376;2024-01-30T08:35:18;44.00;27.50;14.25
65556;PMS3003;52200;53.490;14.376;2024-01-30T08:37:43;37.00;24.25;14.00
65556;PMS3003;52200;53.490;14.376;2024-01-30T08:40:08;46.25;27.75;17.25
65556;PMS3003;52200;53.490;14.376;2024-01-30T08:42:35;36.80;25.20;14.60
65556;PMS3003;52200;53.490;14.376;2024-01-30T08:45:00;37.75;25.50;14.50
65556;PMS3003;52200;53.490;14.376;2024-01-30T08:47:26;40.75;23.75;12.00
65556;PMS3003;52200;53.490;14.376;2024-01-30T08:49:51;40.25;21.25;12.00
65556;PMS3003;52200;53.490;14.376;2024-01-30T08:52:17;39.75;25.75;13.25
65556;PMS3003;52200;53.490;14.376;2024-01-30T08:54:42;40.00;22.00;13.50
65556;PMS3003;52200;53.490;14.376;2024-01-30T08:57:08;44.00;23.75;15.00
65556;PMS3003;52200;53.490;14.376;2024-01-30T08:59:33;38.75;23.50;14.00
65556;PMS3003;52200;53.490;14.376;2024-01-30T09:01:59;34.25;23.00;14.75
65556;PMS3003;52200;53.490;14.376;2024-01-30T09:04:24;43.75;24.75;15.50
65556;PMS3003;52200;53.490;14.376;2024-01-30T09:06:50;33.50;22.50;12.25
65556;PMS3003;52200;53.490;14.376;2024-01-30T09:09:15;41.75;24.25;13.75
65556;PMS3003;52200;53.490;14.376;2024-01-30T09:11:41;41.00;25.00;13.20
65556;PMS3003;52200;53.490;14.376;2024-01-30T09:14:07;36.50;24.75;14.00
65556;PMS3003;52200;53.490;14.376;2024-01-30T09:16:32;32.75;22.75;10.50
65556;PMS3003;52200;53.490;14.376;2024-01-30T09:18:57;37.25;22.00;11.00
65556;PMS3003;52200;53.490;14.376;2024-01-30T09:21:23;31.50;18.75;12.75
65556;PMS3003;52200;53.490;14.376;2024-01-30T09:23:49;38.00;24.00;12.75
65556;PMS3003;52200;53.490;14.376;2024-01-30T09:26:14;38.00;22.75;14.75
65556;PMS3003;52200;53.490;14.376;2024-01-30T09:28:40;35.25;19.50;13.00
65556;PMS3003;52200;53.490;14.376;2024-01-30T09:31:10;38.20;22.20;14.20
65556;PMS3003;52200;53.490;14.376;2024-01-30T09:33:37;38.20;20.00;10.20
65556;PMS3003;52200;53.490;14.376;2024-01-30T09:36:03;31.50;21.00;11.75
65556;PMS3003;52200;53.490;14.376;2024-01-30T09:38:28;36.00;20.00;12.00
65556;PMS3003;52200;53.490;14.376;2024-01-30T09:40:54;29.75;18.25;12.75
65556;PMS3003;52200;53.490;14.376;2024-01-30T09:43:22;28.40;18.60;11.00
65556;PMS3003;52200;53.490;14.376;2024-01-30T09:45:49;34.40;22.00;13.00
65556;PMS3003;52200;53.490;14.376;2024-01-30T09:48:15;28.20;18.40;10.20
65556;PMS3003;52200;53.490;14.376;2024-01-30T09:50:41;29.00;19.25;11.75
65556;PMS3003;52200;53.490;14.376;2024-01-30T09:53:07;31.75;21.75;10.75
65556;PMS3003;52200;53.490;14.376;2024-01-30T09:55:34;30.60;18.60;10.40
65556;PMS3003;52200;53.490;14.376;2024-01-30T09:58:01;32.00;20.80;13.00
65556;PMS3003;52200;53.490;14.376;2024-01-30T10:00:26;32.00;20.25;12.00
65556;PMS3003;52200;53.490;14.376;2024-01-30T10:02:52;34.50;22.50;13.00
65556;PMS3003;52200;53.490;14.376;2024-01-30T10:05:18;38.00;22.75;13.25
65556;PMS3003;52200;53.490;14.376;2024-01-30T10:07:54;30.20;17.00;10.60
65556;PMS3003;52200;53.490;14.376;2024-01-30T10:10:23;27.60;17.40;10.40
65556;PMS3003;52200;53.490;14.376;2024-01-30T10:12:49;37.80;20.00;11.20
65556;PMS3003;52200;53.490;14.376;2024-01-30T10:15:14;31.50;20.75;10.25
65556;PMS3003;52200;53.490;14.376;2024-01-30T10:17:40;32.25;18.00;10.25
65556;PMS3003;52200;53.490;14.376;2024-01-30T10:20:06;29.00;20.00;11.25
65556;PMS3003;52200;53.490;14.376;2024-01-30T10:22:32;28.40;15.40;11.00
65556;PMS3003;52200;53.490;14.376;2024-01-30T10:24:58;28.00;18.50;11.00
65556;PMS3003;52200;53.490;14.376;2024-01-30T10:27:26;28.80;19.20;11.60
65556;PMS3003;52200;53.490;14.376;2024-01-30T10:29:52;33.40;21.80;12.60
65556;PMS3003;52200;53.490;14.376;2024-01-30T10:32:17;35.00;20.00;12.25
65556;PMS3003;52200;53.490;14.376;2024-01-30T10:34:43;27.00;18.00;12.00
65556;PMS3003;52200;53.490;14.376;2024-01-30T10:37:09;34.00;21.00;10.00
65556;PMS3003;52200;53.490;14.376;2024-01-30T10:39:40;34.00;19.00;11.20
65556;PMS3003;52200;53.490;14.376;2024-01-30T10:42:09;30.60;20.00;11.00
65556;PMS3003;52200;53.490;14.376;2024-01-30T10:47:26;29.80;20.20;13.20
65556;PMS3003;52200;53.490;14.376;2024-01-30T10:49:55;25.40;17.80;11.00
65556;PMS3003;52200;53.490;14.376;2024-01-30T10:52:22;29.20;19.60;11.00
65556;PMS3003;52200;53.490;14.376;2024-01-30T10:54:53;36.60;23.80;13.80
65556;PMS3003;52200;53.490;14.376;2024-01-30T10:57:19;36.00;24.00;16.40
65556;PMS3003;52200;53.490;14.376;2024-01-30T10:59:48;32.60;23.00;14.20
65556;PMS3003;52200;53.490;14.376;2024-01-30T11:02:15;32.40;22.60;13.60
65556;PMS3003;52200;53.490;14.376;2024-01-30T11:04:41;37.60;23.40;16.20
65556;PMS3003;52200;53.490;14.376;2024-01-30T11:07:24;35.00;21.80;14.00
65556;PMS3003;52200;53.490;14.376;2024-01-30T11:12:26;27.60;19.80;14.20
65556;PMS3003;52200;53.490;14.376;2024-01-30T11:15:05;33.20;20.00;11.00
65556;PMS3003;52200;53.490;14.376;2024-01-30T11:22:46;32.80;20.80;12.00
65556;PMS3003;52200;53.490;14.376;2024-01-30T11:25:15;30.80;21.00;12.20
65556;PMS3003;52200;53.490;14.376;2024-01-30T11:27:42;28.80;19.40;11.60
65556;PMS3003;52200;53.490;14.376;2024-01-30T11:30:08;29.40;20.40;12.00
65556;PMS3003;52200;53.490;14.376;2024-01-30T11:32:34;33.60;18.60;12.00
65556;PMS3003;52200;53.490;14.376;2024-01-30T11:35:02;32.00;19.00;13.40
65556;PMS3003;52200;53.490;14.376;2024-01-30T11:37:30;31.60;19.00;11.00
65556;PMS3003;52200;53.490;14.376;2024-01-30T11:39:56;35.25;21.25;12.00
65556;PMS3003;52200;53.490;14.376;2024-01-30T11:42:23;28.00;18.40;11.80
65556;PMS3003;52200;53.490;14.376;2024-01-30T11:44:52;33.80;23.40;14.20
65556;PMS3003;52200;53.490;14.376;2024-01-30T11:47:17;27.25;19.75;11.75
65556;PMS3003;52200;53.490;14.376;2024-01-30T11:49:43;34.25;21.25;11.75
65556;PMS3003;52200;53.490;14.376;2024-01-30T11:52:09;35.75;19.00;10.25
65556;PMS3003;52200;53.490;14.376;2024-01-30T11:54:34;27.00;17.80;11.00
65556;PMS3003;52200;53.490;14.376;2024-01-30T11:57:00;29.80;16.80;11.00
65556;PMS3003;52200;53.490;14.376;2024-01-30T11:59:26;29.75;19.50;11.00
65556;PMS3003;52200;53.490;14.376;2024-01-30T12:01:51;26.00;19.75;11.00
65556;PMS3003;52200;53.490;14.376;2024-01-30T12:04:17;32.50;20.75;13.00
65556;PMS3003;52200;53.490;14.376;2024-01-30T12:06:43;27.75;17.50;11.00
65556;PMS3003;52200;53.490;14.376;2024-01-30T12:09:08;31.75;21.25;12.25
65556;PMS3003;52200;53.490;14.376;2024-01-30T12:11:47;32.20;20.80;11.20
65556;PMS3003;52200;53.490;14.376;2024-01-30T12:14:14;31.00;20.80;12.20
65556;PMS3003;52200;53.490;14.376;2024-01-30T12:16:41;26.80;17.40;11.00
65556;PMS3003;52200;53.490;14.376;2024-01-30T12:19:07;27.75;18.00;10.75
65556;PMS3003;52200;53.490;14.376;2024-01-30T12:21:33;32.25;21.25;10.75
65556;PMS3003;52200;53.490;14.376;2024-01-30T12:24:00;32.40;20.20;11.00
65556;PMS3003;52200;53.490;14.376;2024-01-30T12:26:26;27.00;18.00;11.00
65556;PMS3003;52200;53.490;14.376;2024-01-30T12:28:54;32.80;21.60;12.40
65556;PMS3003;52200;53.490;14.376;2024-01-30T12:31:26;41.40;21.00;15.00
65556;PMS3003;52200;53.490;14.376;2024-01-30T12:33:58;32.00;21.40;12.60
65556;PMS3003;52200;53.490;14.376;2024-01-30T12:36:24;33.00;20.20;12.40
65556;PMS3003;52200;53.490;14.376;2024-01-30T12:38:50;28.60;18.60;11.40
65556;PMS3003;52200;53.490;14.376;2024-01-30T12:41:16;33.00;21.75;11.00
65556;PMS3003;52200;53.490;14.376;2024-01-30T12:43:42;34.50;20.25;14.00
65556;PMS3003;52200;53.490;14.376;2024-01-30T12:46:08;35.20;19.20;14.00
65556;PMS3003;52200;53.490;14.376;2024-01-30T12:48:33;32.00;20.50;13.00
65556;PMS3003;52200;53.490;14.376;2024-01-30T12:50:59;33.75;20.25;14.25
65556;PMS3003;52200;53.490;14.376;2024-01-30T12:53:25;31.50;21.00;14.00
65556;PMS3003;52200;53.490;14.376;2024-01-30T12:55:50;34.75;24.50;14.25
65556;PMS3003;52200;53.490;14.376;2024-01-30T12:58:16;35.25;24.25;16.50
65556;PMS3003;52200;53.490;14.376;2024-01-30T13:00:41;41.50;29.00;17.75
65556;PMS3003;52200;53.490;14.376;2024-01-30T13:03:08;33.00;24.20;14.20
65556;PMS3003;52200;53.490;14.376;2024-01-30T13:05:35;38.40;23.60;13.80
65556;PMS3003;52200;53.490;14.376;2024-01-30T13:08:00;34.75;21.25;14.25
65556;PMS3003;52200;53.490;14.376;2024-01-30T13:10:26;28.25;21.00;12.00
65556;PMS3003;52200;53.490;14.376;2024-01-30T13:12:51;34.50;20.25;14.25
65556;PMS3003;52200;53.490;14.376;2024-01-30T13:15:16;30.50;22.00;15.00
65556;PMS3003;52200;53.490;14.376;2024-01-30T13:17:42;36.80;21.40;15.00
65556;PMS3003;52200;53.490;14.376;2024-01-30T13:20:09;33.20;20.80;11.00
65556;PMS3003;52200;53.490;14.376;2024-01-30T13:22:34;32.20;19.60;11.00
65556;PMS3003;52200;53.490;14.376;2024-01-30T13:25:00;39.25;19.25;14.25
65556;PMS3003;52200;53.490;14.376;2024-01-30T13:27:25;34.50;21.50;13.75
65556;PMS3003;52200;53.490;14.376;2024-01-30T13:29:51;31.25;19.25;12.00
65556;PMS3003;52200;53.490;14.376;2024-01-30T13:32:16;35.25;20.00;11.50
65556;PMS3003;52200;53.490;14.376;2024-01-30T13:34:42;32.50;19.00;12.00
65556;PMS3003;52200;53.490;14.376;2024-01-30T13:37:08;26.00;17.20;11.00
65556;PMS3003;52200;53.490;14.376;2024-01-30T13:39:33;33.25;20.00;9.50
65556;PMS3003;52200;53.490;14.376;2024-01-30T13:41:59;30.00;19.75;11.00